Terminal Aerodrome Forecast
Issued by NWS Boston, MA

Home | Current Version | Previous Version | Text Only | Print | Product List | Glossary On
Versions: 1 2 3 4 5 6 7 8 9 10 11 12 13 14 15 16 17 18 19 20 21 22 23 24 25 26 27 28 29 30 31 32 33 34 35 36 37 38 39 40 41 42 43 44
759
FTUS41 KBOX 251841 AAA
TAFORH
TAF AMD
KORH 251841Z 2519/2618 02005KT 2SM -RASN OVC005
     FM252200 VRB03KT 3SM -RASN OVC012
     FM260000 VRB03KT P6SM OVC040
     FM260300 VRB03KT P6SM SCT200
     FM261400 06007KT P6SM BKN020=

USA.gov is the U.S. government's official web portal to all federal, state and local government web resources and services.